createdAt,value
2022-10-25T00:02:00.759Z,100752.50
2022-10-25T00:04:29.750Z,100756.69
2022-10-25T00:06:58.700Z,100761.28
2022-10-25T00:09:27.625Z,100751.97
2022-10-25T00:11:56.534Z,100759.31
2022-10-25T00:14:26.793Z,100762.94
2022-10-25T00:16:55.711Z,100759.34
2022-10-25T00:19:24.674Z,100767.81
2022-10-25T00:21:53.594Z,100770.81
2022-10-25T00:24:22.504Z,100778.31
2022-10-25T00:26:51.473Z,100773.63
2022-10-25T00:29:20.442Z,100772.06
2022-10-25T00:31:50.704Z,100774.31
2022-10-25T00:34:19.651Z,100772.22
2022-10-25T00:36:48.566Z,100770.13
2022-10-25T00:39:17.502Z,100775.00
2022-10-25T00:41:46.586Z,100766.56
2022-10-25T00:44:52.041Z,100775.28
2022-10-25T00:47:50.019Z,100777.06
2022-10-25T00:50:35.661Z,100774.19
2022-10-25T00:53:10.658Z,100775.00
2022-10-25T00:55:45.422Z,100772.09
2022-10-25T00:58:18.787Z,100773.34
2022-10-25T01:00:48.817Z,100771.66
2022-10-25T01:03:21.766Z,100774.03
2022-10-25T01:05:52.306Z,100773.44
2022-10-25T01:08:22.417Z,100777.19
2022-10-25T01:10:51.653Z,100778.03
2022-10-25T01:13:20.744Z,100775.38
2022-10-25T01:15:59.897Z,100778.03
2022-10-25T01:18:43.273Z,100777.91
2022-10-25T01:21:37.086Z,100776.38
2022-10-25T01:24:40.079Z,100770.00
2022-10-25T01:30:55.897Z,100770.94
2022-10-25T01:33:34.967Z,100777.16
2022-10-25T01:36:11.605Z,100771.88
2022-10-25T01:38:48.208Z,100775.03
2022-10-25T01:41:25.993Z,100778.66
2022-10-25T01:44:09.036Z,100774.78
2022-10-25T01:46:45.821Z,100784.31
2022-10-25T01:49:23.672Z,100776.28
2022-10-25T01:51:52.587Z,100776.28
2022-10-25T01:54:24.972Z,100774.91
2022-10-25T01:57:06.568Z,100781.25
2022-10-25T02:00:01.137Z,100777.94
2022-10-25T02:02:34.645Z,100782.25
2022-10-25T02:05:11.468Z,100773.13
2022-10-25T02:07:44.710Z,100777.41
2022-10-25T02:10:21.066Z,100775.03
2022-10-25T02:12:56.757Z,100783.22
2022-10-25T02:15:32.394Z,100783.09
2022-10-25T02:18:04.759Z,100772.56
2022-10-25T02:20:36.801Z,100783.88
2022-10-25T02:23:07.237Z,100779.16
2022-10-25T02:25:40.580Z,100783.34
2022-10-25T02:28:13.633Z,100780.16
2022-10-25T02:30:44.845Z,100778.78
2022-10-25T02:33:14.045Z,100789.03
2022-10-25T02:35:44.331Z,100794.16
2022-10-25T02:38:13.308Z,100791.81
2022-10-25T02:40:42.302Z,100787.28
2022-10-25T02:43:11.225Z,100795.16
2022-10-25T02:45:40.166Z,100789.19
2022-10-25T02:48:09.066Z,100794.59
2022-10-25T02:50:37.979Z,100799.28
2022-10-25T02:53:08.282Z,100790.56
2022-10-25T02:55:37.198Z,100796.38
2022-10-25T02:58:06.180Z,100795.69
2022-10-25T03:00:35.141Z,100802.06
2022-10-25T03:03:04.207Z,100810.38
2022-10-25T03:05:33.120Z,100810.38
2022-10-25T03:08:02.135Z,100814.38
2022-10-25T03:10:32.462Z,100805.94
2022-10-25T03:13:01.361Z,100808.44
2022-10-25T03:15:30.294Z,100815.09
2022-10-25T03:17:59.228Z,100806.09
2022-10-25T03:20:28.182Z,100808.72
2022-10-25T03:22:57.115Z,100809.31
2022-10-25T03:25:26.127Z,100816.91
2022-10-25T03:27:56.523Z,100826.56
2022-10-25T03:30:25.533Z,100818.97
2022-10-25T03:32:54.801Z,100823.28
2022-10-25T03:35:24.497Z,100831.00
2022-10-25T03:37:54.150Z,100824.25
2022-10-25T03:40:23.277Z,100834.22
2022-10-25T03:42:52.265Z,100830.88
2022-10-25T03:45:22.639Z,100831.00
2022-10-25T03:47:51.543Z,100833.91
2022-10-25T03:50:20.914Z,100844.41
2022-10-25T03:52:49.900Z,100832.38
2022-10-25T03:55:19.231Z,100851.47
2022-10-25T03:57:48.617Z,100847.59
2022-10-25T04:00:18.039Z,100852.16
2022-10-25T04:02:48.386Z,100850.91
2022-10-25T04:05:17.482Z,100856.59
2022-10-25T04:07:46.574Z,100856.28
2022-10-25T04:10:15.730Z,100853.53
2022-10-25T04:12:44.717Z,100851.97
2022-10-25T04:15:14.217Z,100859.28
2022-10-25T04:17:43.181Z,100855.53
2022-10-25T04:20:13.842Z,100859.16
2022-10-25T04:22:42.814Z,100850.84
2022-10-25T04:25:11.849Z,100852.50
2022-10-25T04:27:40.842Z,100857.19
2022-10-25T04:30:10.753Z,100848.34
2022-10-25T04:32:39.681Z,100852.50
2022-10-25T04:35:09.631Z,100849.06
2022-10-25T04:37:39.993Z,100847.13
2022-10-25T04:40:10.281Z,100854.50
2022-10-25T04:42:39.227Z,100853.53
2022-10-25T04:45:08.942Z,100859.34
2022-10-25T04:47:37.886Z,100850.66
2022-10-25T04:50:07.509Z,100856.28
2022-10-25T04:52:36.453Z,100855.06
2022-10-25T04:55:07.449Z,100858.97
2022-10-25T04:57:36.399Z,100859.34
2022-10-25T05:00:05.950Z,100860.47
2022-10-25T05:02:34.910Z,100856.44
2022-10-25T05:05:03.891Z,100863.75
2022-10-25T05:07:32.791Z,100859.47
2022-10-25T05:10:01.687Z,100872.91
2022-10-25T05:12:31.958Z,100868.84
2022-10-25T05:15:00.857Z,100868.19
2022-10-25T05:17:30.544Z,100870.28
2022-10-25T05:19:59.498Z,100881.59
2022-10-25T05:22:29.179Z,100874.84
2022-10-25T05:24:58.114Z,100877.63
2022-10-25T05:27:27.090Z,100870.22
2022-10-25T05:29:57.299Z,100867.78
2022-10-25T05:32:26.197Z,100878.84
2022-10-25T05:34:55.091Z,100879.81
2022-10-25T05:37:24.062Z,100875.97
2022-10-25T05:39:52.958Z,100879.28
2022-10-25T05:42:22.430Z,100878.59
2022-10-25T05:44:51.335Z,100884.94
2022-10-25T05:47:21.624Z,100890.19
2022-10-25T05:49:50.538Z,100888.69
2022-10-25T05:52:19.461Z,100894.50
2022-10-25T05:54:48.405Z,100893.97
2022-10-25T05:57:17.333Z,100900.59
2022-10-25T05:59:46.260Z,100901.41
2022-10-25T06:02:15.270Z,100901.41
2022-10-25T06:04:50.254Z,100902.25
2022-10-25T06:07:21.350Z,100908.88
2022-10-25T06:09:50.960Z,100909.72
2022-10-25T06:12:19.881Z,100914.56
2022-10-25T06:14:48.779Z,100914.13
2022-10-25T06:17:17.699Z,100916.47
2022-10-25T06:19:48.034Z,100921.19
2022-10-25T06:22:17.054Z,100924.63
2022-10-25T06:24:46.038Z,100919.09
2022-10-25T06:27:15.235Z,100924.50
2022-10-25T06:29:44.149Z,100932.25
2022-10-25T06:32:13.086Z,100926.88
2022-10-25T06:34:42.054Z,100929.25
2022-10-25T06:37:12.376Z,100940.88
2022-10-25T06:39:41.256Z,100939.38
2022-10-25T06:42:10.196Z,100943.69
2022-10-25T06:44:39.959Z,100946.44
2022-10-25T06:47:17.689Z,100950.88
2022-10-25T06:49:47.317Z,100949.34
2022-10-25T06:52:17.608Z,100950.03
2022-10-25T06:54:46.528Z,100964.84
2022-10-25T06:57:15.487Z,100949.78
2022-10-25T06:59:45.869Z,100957.66
2022-10-25T07:02:14.900Z,100963.06
2022-10-25T07:04:43.900Z,100962.63
2022-10-25T07:07:14.811Z,100970.69
2022-10-25T07:09:45.211Z,100970.81
2022-10-25T07:12:14.169Z,100972.31
2022-10-25T07:14:43.101Z,100980.63
2022-10-25T07:17:12.030Z,100982.72
2022-10-25T07:19:40.954Z,100983.56
2022-10-25T07:22:09.906Z,100989.78
2022-10-25T07:24:38.835Z,100988.38
2022-10-25T07:27:09.110Z,100990.75
2022-10-25T07:29:38.065Z,100986.03
2022-10-25T07:32:07.237Z,100991.16
2022-10-25T07:34:36.164Z,100996.69
2022-10-25T07:37:06.986Z,100997.53
2022-10-25T07:39:36.037Z,101000.16
2022-10-25T07:42:05.059Z,101002.22
2022-10-25T07:44:35.362Z,101004.84
2022-10-25T07:47:04.404Z,101003.91
2022-10-25T07:49:33.312Z,101010.66
2022-10-25T07:52:02.244Z,101017.19
2022-10-25T07:54:31.217Z,101019.13
2022-10-25T07:57:01.131Z,101015.66
2022-10-25T07:59:30.394Z,101018.53
2022-10-25T08:02:00.646Z,101026.59
2022-10-25T08:04:32.708Z,101023.25
2022-10-25T08:07:02.151Z,101025.06
2022-10-25T08:09:38.389Z,101029.22
2022-10-25T08:12:07.909Z,101026.34
2022-10-25T08:14:40.729Z,101030.78
2022-10-25T08:17:12.659Z,101028.69
2022-10-25T08:19:41.644Z,101029.03
2022-10-25T08:22:10.631Z,101038.75
2022-10-25T08:24:40.101Z,101046.88
2022-10-25T08:27:09.057Z,101039.94
2022-10-25T08:29:38.079Z,101041.44
2022-10-25T08:32:07.042Z,101052.69
2022-10-25T08:34:37.354Z,101058.38
2022-10-25T08:37:06.274Z,101062.81
2022-10-25T08:39:35.311Z,101068.34
2022-10-25T08:42:04.806Z,101063.16
2022-10-25T08:44:45.160Z,101059.28
2022-10-25T08:47:19.460Z,101066.19
2022-10-25T08:49:56.774Z,101071.06
2022-10-25T08:52:31.913Z,101074.63
2022-10-25T08:55:05.688Z,101070.22
2022-10-25T08:57:39.136Z,101082.25
2022-10-25T09:00:17.260Z,101074.53
2022-10-25T09:02:51.862Z,101079.84
2022-10-25T09:05:35.601Z,101085.94
2022-10-25T09:08:20.623Z,101092.09
2022-10-25T09:11:00.623Z,101090.06
2022-10-25T09:13:38.867Z,101091.66
2022-10-25T09:16:16.130Z,101101.97
2022-10-25T09:18:49.299Z,101091.56
2022-10-25T09:21:23.179Z,101098.59
2022-10-25T09:24:00.422Z,101101.47
2022-10-25T09:26:42.142Z,101099.22
2022-10-25T09:29:24.400Z,101101.03
2022-10-25T09:31:57.901Z,101110.84
2022-10-25T09:34:32.870Z,101116.56
2022-10-25T09:37:13.118Z,101104.50
2022-10-25T09:39:45.589Z,101114.94
2022-10-25T09:42:22.753Z,101107.22
2022-10-25T09:44:55.656Z,101112.34
2022-10-25T09:47:36.899Z,101115.19
2022-10-25T09:50:12.859Z,101120.88
2022-10-25T09:52:49.537Z,101115.59
2022-10-25T09:55:34.479Z,101119.41
2022-10-25T09:58:03.807Z,101130.53
2022-10-25T10:00:34.401Z,101130.06
2022-10-25T10:03:03.417Z,101130.06
2022-10-25T10:05:33.197Z,101125.69
2022-10-25T10:08:03.474Z,101134.53
2022-10-25T10:10:36.313Z,101134.28
2022-10-25T10:13:13.687Z,101134.41
2022-10-25T10:15:51.143Z,101136.91
2022-10-25T10:18:37.776Z,101133.00
2022-10-25T10:21:13.266Z,101132.00
2022-10-25T10:23:52.972Z,101132.41
2022-10-25T10:26:29.234Z,101139.84
2022-10-25T10:29:08.890Z,101133.31
2022-10-25T10:31:39.878Z,101136.34
2022-10-25T10:34:25.316Z,101143.53
2022-10-25T10:37:05.740Z,101153.47
2022-10-25T10:39:36.357Z,101147.53
2022-10-25T10:42:17.413Z,101146.47
2022-10-25T10:45:05.155Z,101157.72
2022-10-25T10:47:36.996Z,101148.19
2022-10-25T10:50:14.009Z,101149.06
2022-10-25T10:52:45.879Z,101147.91
2022-10-25T10:55:22.566Z,101147.38
2022-10-25T10:57:55.090Z,101149.19
2022-10-25T11:00:27.081Z,101144.91
2022-10-25T11:05:32.205Z,101148.94
2022-10-25T11:08:03.733Z,101146.13
2022-10-25T11:10:35.832Z,101150.69
2022-10-25T11:13:16.398Z,101148.66
2022-10-25T11:16:21.953Z,101153.78
2022-10-25T11:19:07.579Z,101158.81
2022-10-25T11:22:12.746Z,101163.19
2022-10-25T11:24:55.400Z,101162.47
2022-10-25T11:27:39.047Z,101172.22
2022-10-25T11:30:14.066Z,101180.38
2022-10-25T11:33:25.158Z,101171.91
2022-10-25T11:36:14.261Z,101179.50
2022-10-25T11:38:58.469Z,101183.56
2022-10-25T11:41:46.720Z,101182.50
2022-10-25T11:44:31.695Z,101187.94
2022-10-25T11:47:11.831Z,101198.34
2022-10-25T11:49:58.546Z,101200.41
2022-10-25T11:52:56.139Z,101204.31
2022-10-25T11:55:36.871Z,101198.16
2022-10-25T11:58:19.693Z,101192.22
2022-10-25T12:00:58.015Z,101193.25
2022-10-25T12:03:44.810Z,101187.53
2022-10-25T12:06:23.812Z,101197.97
2022-10-25T12:09:07.543Z,101200.25
2022-10-25T12:11:43.463Z,101199.16
2022-10-25T12:14:16.892Z,101201.09
2022-10-25T12:16:51.924Z,101215.13
2022-10-25T12:19:27.366Z,101218.06
2022-10-25T12:22:02.274Z,101201.88
2022-10-25T12:24:40.448Z,101217.59
2022-10-25T12:27:11.960Z,101222.97
2022-10-25T12:29:45.460Z,101218.97
2022-10-25T12:32:21.516Z,101221.97
2022-10-25T12:34:55.023Z,101214.16
2022-10-25T12:37:36.966Z,101216.34
2022-10-25T12:40:07.861Z,101225.00
2022-10-25T12:42:46.295Z,101225.59
2022-10-25T12:45:48.854Z,101229.88
2022-10-25T12:48:45.486Z,101236.44
2022-10-25T12:51:33.046Z,101237.47
2022-10-25T12:54:31.617Z,101246.00
2022-10-25T12:57:14.963Z,101242.28
2022-10-25T13:00:03.834Z,101244.13
2022-10-25T13:03:11.937Z,101238.38
2022-10-25T13:06:19.428Z,101240.06
2022-10-25T13:08:48.910Z,101238.09
2022-10-25T13:11:18.157Z,101220.19
2022-10-25T13:13:52.533Z,101240.28
2022-10-25T13:16:27.695Z,101241.56
2022-10-25T13:19:53.684Z,101235.19
2022-10-25T13:22:40.898Z,101240.03
2022-10-25T13:25:39.017Z,101244.72
2022-10-25T13:28:32.773Z,101236.22
2022-10-25T13:31:48.306Z,101253.09
2022-10-25T13:34:37.210Z,101255.25
2022-10-25T13:37:30.406Z,101256.13
2022-10-25T13:40:03.923Z,101253.06
2022-10-25T13:42:35.437Z,101257.59
2022-10-25T13:45:09.617Z,101258.09
2022-10-25T13:47:40.927Z,101267.34
2022-10-25T13:53:02.379Z,101264.91
2022-10-25T13:55:37.326Z,101269.47
2022-10-25T13:58:39.664Z,101264.53
2022-10-25T14:01:55.579Z,101258.75
2022-10-25T14:04:41.061Z,101267.16
2022-10-25T14:07:48.532Z,101261.31
2022-10-25T14:10:34.009Z,101258.78
2022-10-25T14:13:16.876Z,101262.47
2022-10-25T14:15:53.405Z,101265.53
2022-10-25T14:18:24.668Z,101268.31
2022-10-25T14:20:56.844Z,101264.53
2022-10-25T14:23:29.826Z,101270.06
2022-10-25T14:26:00.740Z,101268.09
2022-10-25T14:28:33.481Z,101272.63
2022-10-25T14:31:04.145Z,101263.66
2022-10-25T14:33:37.948Z,101263.78
2022-10-25T14:36:11.785Z,101271.44
2022-10-25T14:38:52.904Z,101262.59
2022-10-25T14:41:24.185Z,101265.78
2022-10-25T14:43:55.353Z,101262.31
2022-10-25T14:46:26.047Z,101268.84
2022-10-25T14:48:57.356Z,101267.25
2022-10-25T14:51:29.295Z,101264.59
2022-10-25T14:54:02.172Z,101264.28
2022-10-25T14:56:33.949Z,101261.84
2022-10-25T14:59:06.597Z,101263.28
2022-10-25T15:01:36.290Z,101262.75
2022-10-25T15:04:05.544Z,101268.31
2022-10-25T15:06:34.549Z,101268.47
2022-10-25T15:12:16.339Z,101270.63
2022-10-25T15:14:48.166Z,101274.84
2022-10-25T15:17:24.289Z,101281.53
2022-10-25T15:20:06.216Z,101281.44
2022-10-25T15:22:43.873Z,101282.16
2022-10-25T15:25:28.693Z,101283.47
2022-10-25T15:27:58.946Z,101285.00
2022-10-25T15:30:37.029Z,101282.78
2022-10-25T15:33:11.148Z,101284.72
2022-10-25T15:35:48.283Z,101284.72
2022-10-25T15:38:18.269Z,101284.03
2022-10-25T15:40:47.889Z,101275.59
2022-10-25T15:43:17.025Z,101279.63
2022-10-25T15:45:47.405Z,101284.78
2022-10-25T15:48:18.007Z,101290.63
2022-10-25T15:50:49.920Z,101293.28
2022-10-25T15:53:19.522Z,101291.88
2022-10-25T15:55:50.147Z,101300.63
2022-10-25T15:58:19.539Z,101293.81
2022-10-25T16:00:52.042Z,101298.50
2022-10-25T16:03:24.946Z,101289.63
2022-10-25T16:05:54.257Z,101306.84
2022-10-25T16:08:23.256Z,101302.53
2022-10-25T16:10:52.729Z,101300.59
2022-10-25T16:13:28.211Z,101300.59
2022-10-25T16:15:59.040Z,101300.72
2022-10-25T16:18:29.518Z,101304.03
2022-10-25T16:20:59.178Z,101303.34
2022-10-25T16:23:28.262Z,101306.47
2022-10-25T16:25:57.517Z,101311.56
2022-10-25T16:31:01.611Z,101309.75
2022-10-25T16:33:30.569Z,101315.44
2022-10-25T16:35:59.455Z,101311.31
2022-10-25T16:38:28.344Z,101316.72
2022-10-25T16:40:58.089Z,101317.00
2022-10-25T16:43:27.026Z,101313.09
2022-10-25T16:45:56.009Z,101317.97
2022-10-25T16:48:26.417Z,101325.41
2022-10-25T16:50:55.341Z,101327.88
2022-10-25T16:53:24.555Z,101329.84
2022-10-25T16:55:53.457Z,101328.50
2022-10-25T16:58:22.363Z,101331.25
2022-10-25T17:00:51.319Z,101331.41
2022-10-25T17:03:20.234Z,101326.84
2022-10-25T17:05:52.315Z,101339.28
2022-10-25T17:08:21.312Z,101339.28
2022-10-25T17:10:50.267Z,101336.53
2022-10-25T17:13:20.099Z,101337.09
2022-10-25T17:15:49.080Z,101341.66
2022-10-25T17:18:20.856Z,101346.53
2022-10-25T17:20:51.203Z,101340.69
2022-10-25T17:23:20.185Z,101336.25
2022-10-25T17:25:58.277Z,101345.38
2022-10-25T17:28:27.360Z,101351.81
2022-10-25T17:30:56.414Z,101345.03
2022-10-25T17:33:26.048Z,101342.94
2022-10-25T17:35:57.049Z,101349.03
2022-10-25T17:38:26.090Z,101351.13
2022-10-25T17:40:54.989Z,101352.78
2022-10-25T17:43:23.876Z,101354.84
2022-10-25T17:45:52.826Z,101356.81
2022-10-25T17:48:21.734Z,101366.25
2022-10-25T17:50:50.667Z,101361.25
2022-10-25T17:53:20.893Z,101360.28
2022-10-25T17:55:49.796Z,101358.63
2022-10-25T17:58:18.743Z,101367.66
2022-10-25T18:00:47.641Z,101369.28
2022-10-25T18:03:16.570Z,101373.31
2022-10-25T18:05:45.513Z,101370.69
2022-10-25T18:08:14.458Z,101373.84
2022-10-25T18:10:44.764Z,101369.25
2022-10-25T18:13:13.690Z,101372.84
2022-10-25T18:15:42.809Z,101375.31
2022-10-25T18:18:11.721Z,101380.31
2022-10-25T18:20:41.423Z,101374.72
2022-10-25T18:23:13.373Z,101378.25
2022-10-25T18:25:52.821Z,101382.38
2022-10-25T18:28:21.826Z,101382.34
2022-10-25T18:30:50.772Z,101379.78
2022-10-25T18:33:23.709Z,101378.91
2022-10-25T18:35:59.259Z,101388.16
2022-10-25T18:38:28.495Z,101388.41
2022-10-25T18:40:58.795Z,101403.06
2022-10-25T18:43:28.062Z,101399.03
2022-10-25T18:46:00.901Z,101392.88
2022-10-25T18:48:30.079Z,101390.16
2022-10-25T18:51:05.185Z,101385.53
2022-10-25T18:53:35.338Z,101376.38
2022-10-25T18:56:08.631Z,101387.38
2022-10-25T18:58:37.520Z,101384.19
2022-10-25T19:01:11.317Z,101382.06
2022-10-25T19:03:41.287Z,101388.84
2022-10-25T19:06:10.733Z,101386.00
2022-10-25T19:08:39.754Z,101382.66
2022-10-25T19:11:12.017Z,101380.28
2022-10-25T19:13:42.402Z,101379.00
2022-10-25T19:16:13.723Z,101384.00
2022-10-25T19:18:42.621Z,101381.25
2022-10-25T19:21:14.207Z,101383.56
2022-10-25T19:23:45.367Z,101384.66
2022-10-25T19:26:18.095Z,101383.94
2022-10-25T19:28:47.432Z,101384.53
2022-10-25T19:31:17.832Z,101391.09
2022-10-25T19:33:47.616Z,101384.28
2022-10-25T19:36:17.897Z,101391.09
2022-10-25T19:38:48.253Z,101398.38
2022-10-25T19:41:20.853Z,101395.41
2022-10-25T19:43:49.809Z,101394.47
2022-10-25T19:46:19.387Z,101385.84
2022-10-25T19:48:48.401Z,101384.66
2022-10-25T19:51:19.366Z,101386.22
2022-10-25T19:53:49.412Z,101386.44
2022-10-25T19:56:22.054Z,101391.66
2022-10-25T19:58:51.540Z,101393.56
2022-10-25T20:01:23.057Z,101390.22
2022-10-25T20:03:54.500Z,101398.84
2022-10-25T20:06:26.549Z,101397.28
2022-10-25T20:08:57.087Z,101399.53
2022-10-25T20:11:28.165Z,101401.78
2022-10-25T20:13:59.196Z,101410.75
2022-10-25T20:16:29.406Z,101404.66
2022-10-25T20:18:59.752Z,101407.25
2022-10-25T20:21:33.102Z,101403.56
2022-10-25T20:24:03.411Z,101415.81
2022-10-25T20:26:35.376Z,101415.78
2022-10-25T20:29:06.887Z,101413.66
2022-10-25T20:31:36.567Z,101414.44
2022-10-25T20:34:05.555Z,101418.38
2022-10-25T20:36:34.502Z,101420.69
2022-10-25T20:39:03.537Z,101417.56
2022-10-25T20:41:36.294Z,101424.66
2022-10-25T20:44:05.813Z,101421.88
2022-10-25T20:46:35.907Z,101425.34
2022-10-25T20:49:07.262Z,101418.66
2022-10-25T20:51:37.867Z,101431.13
2022-10-25T20:54:09.652Z,101430.88
2022-10-25T20:56:40.249Z,101437.03
2022-10-25T20:59:09.540Z,101432.34
2022-10-25T21:01:38.748Z,101439.28
2022-10-25T21:04:09.571Z,101437.50
2022-10-25T21:06:38.511Z,101437.66
2022-10-25T21:09:07.438Z,101433.47
2022-10-25T21:11:36.353Z,101435.41
2022-10-25T21:14:06.578Z,101445.94
2022-10-25T21:16:35.593Z,101439.66
2022-10-25T21:19:05.059Z,101441.09
2022-10-25T21:21:34.029Z,101452.75
2022-10-25T21:24:05.458Z,101455.25
2022-10-25T21:26:34.385Z,101450.41
2022-10-25T21:29:03.555Z,101443.81
2022-10-25T21:31:33.821Z,101447.00
2022-10-25T21:34:04.504Z,101458.66
2022-10-25T21:36:33.531Z,101449.25
2022-10-25T21:39:02.432Z,101452.09
2022-10-25T21:41:31.348Z,101460.41
2022-10-25T21:44:00.415Z,101460.91
2022-10-25T21:46:29.746Z,101458.06
2022-10-25T21:49:00.025Z,101464.97
2022-10-25T21:51:28.948Z,101462.25
2022-10-25T21:54:01.138Z,101459.41
2022-10-25T21:56:31.438Z,101456.38
2022-10-25T21:59:01.713Z,101461.50
2022-10-25T22:01:33.125Z,101462.25
2022-10-25T22:04:03.436Z,101465.41
2022-10-25T22:06:32.362Z,101470.72
2022-10-25T22:09:01.295Z,101457.44
2022-10-25T22:11:32.798Z,101457.75
2022-10-25T22:14:03.533Z,101464.47
2022-10-25T22:16:33.807Z,101460.63
2022-10-25T22:19:05.945Z,101461.00
2022-10-25T22:21:37.420Z,101458.13
2022-10-25T22:24:08.342Z,101464.47
2022-10-25T22:26:38.047Z,101469.63
2022-10-25T22:29:07.417Z,101469.72
2022-10-25T22:31:36.332Z,101461.25
2022-10-25T22:34:08.487Z,101461.16
2022-10-25T22:36:39.316Z,101460.28
2022-10-25T22:39:09.540Z,101459.66
2022-10-25T22:41:38.668Z,101462.59
2022-10-25T22:44:07.595Z,101470.97
2022-10-25T22:46:37.240Z,101472.94
2022-10-25T22:49:09.522Z,101465.59
2022-10-25T22:51:39.340Z,101473.22
2022-10-25T22:54:08.597Z,101463.19
2022-10-25T22:56:37.932Z,101465.59
2022-10-25T22:59:07.657Z,101470.72
2022-10-25T23:01:38.250Z,101469.28
2022-10-25T23:04:10.281Z,101469.28
2022-10-25T23:06:40.625Z,101473.91
2022-10-25T23:09:11.675Z,101481.75
2022-10-25T23:11:41.732Z,101469.69
2022-10-25T23:14:14.922Z,101465.38
2022-10-25T23:16:46.706Z,101458.19
2022-10-25T23:19:16.951Z,101474.53
2022-10-25T23:21:45.856Z,101471.91
2022-10-25T23:24:14.795Z,101471.16
2022-10-25T23:26:43.776Z,101469.41
2022-10-25T23:29:14.042Z,101472.63
2022-10-25T23:31:42.939Z,101474.25
2022-10-25T23:34:12.553Z,101469.94
2022-10-25T23:36:43.376Z,101477.47
2022-10-25T23:39:12.362Z,101461.97
2022-10-25T23:41:41.325Z,101466.59
2022-10-25T23:44:10.222Z,101465.03
2022-10-25T23:46:39.129Z,101460.75
2022-10-25T23:49:08.041Z,101464.00
2022-10-25T23:51:36.941Z,101458.00
2022-10-25T23:54:09.526Z,101462.00
2022-10-25T23:56:38.637Z,101462.63
2022-10-25T23:59:07.695Z,101470.31
